Varna, Bulgaria
Current Conditions -  °F | °C
As of 12:30 AM on Saturday 01 Nov 2014 (Local Time) from LBWN Reporting Station
Clear Clear  
Wind Chill: 39°   Ceiling: Unl
Heat Index: 43°   Visibility: 4mi
Dew Point: 41°   Wind: 7mph
Humidity: 93%   Direction: 240°WSW
Pressure: 30.21"   Gusts: NA
Location:  43.21°N, 27.9°E
Report Text: LBWN 312130Z 24003MPS 220V280 6000 NSC 06/05 Q1023 NOSIG
Loading
Personal Weather Stations






























Interactive Weather Map
Tropical Storm Tracking
New forecast layout! Learn more

10-Day Weather Forecast

Advertisements
Track Severe Weather on mobile